Time;durP1;ratioP1;P1;durP2;ratioP2;P2;SDS_P1;SDS_P2;PMS_P1;PMS_P2;Temp;Humidity;BMP_temperature;BMP_pressure;BME280_temperature;BME280_humidity;BME280_pressure;Samples;Min_cycle;Max_cycle;Signal;HPM_P1;HPM_P2
2021/09/30 00:00:43;;;;;;;8.60;5.68;;;11.50;71.00;;;;;;5048024;28;20440;-76
2021/09/30 00:03:12;;;;;;;10.90;6.35;;;11.50;71.10;;;;;;5056401;28;20021;-76
2021/09/30 00:05:38;;;;;;;10.60;6.60;;;11.50;70.70;;;;;;5054936;28;20063;-77
2021/09/30 00:08:06;;;;;;;10.60;5.75;;;11.40;71.20;;;;;;5056257;28;20028;-77
2021/09/30 00:10:33;;;;;;;6.40;4.43;;;11.30;71.80;;;;;;5054845;28;20067;-76
2021/09/30 00:13:06;;;;;;;7.53;4.32;;;11.30;72.10;;;;;;5051691;28;20116;-76
2021/09/30 00:53:27;;;;;;;6.47;2.40;;;11.00;72.70;;;;;;5034834;28;20112;-76
2021/09/30 01:19:07;;;;;;;9.02;3.40;;;10.70;72.90;;;;;;5035168;28;20068;-77
2021/09/30 02:20:09;;;;;;;4.65;2.30;;;10.30;74.20;;;;;;5042737;28;20119;-76
2021/09/30 02:31:29;;;;;;;4.93;2.22;;;10.30;74.20;;;;;;5043245;28;20425;-76
2021/09/30 02:59:15;;;;;;;5.78;2.58;;;10.00;74.80;;;;;;5037647;28;20052;-76
2021/09/30 03:01:43;;;;;;;2.95;2.00;;;10.00;74.70;;;;;;5037286;28;20430;-76
2021/09/30 03:04:12;;;;;;;2.47;1.65;;;9.90;74.60;;;;;;5037405;28;20031;-77
2021/09/30 03:06:39;;;;;;;3.15;2.08;;;10.00;74.20;;;;;;5037483;28;20026;-76
2021/09/30 03:09:06;;;;;;;4.93;2.35;;;9.90;74.70;;;;;;5037137;28;20112;-76
2021/09/30 03:11:38;;;;;;;5.22;2.63;;;9.80;75.00;;;;;;5037365;28;20025;-76
2021/09/30 03:14:10;;;;;;;4.85;2.63;;;9.90;74.40;;;;;;5037365;28;20392;-76
2021/09/30 03:16:45;;;;;;;4.78;2.80;;;9.90;74.50;;;;;;5035108;28;20037;-76
2021/09/30 03:19:19;;;;;;;8.23;2.28;;;9.90;74.40;;;;;;5036851;28;20079;-76
2021/09/30 03:24:28;;;;;;;4.95;2.45;;;9.80;74.20;;;;;;5062978;28;20032;-76
2021/09/30 03:26:55;;;;;;;6.00;2.17;;;9.90;73.80;;;;;;5075687;28;20071;-76
2021/09/30 03:29:21;;;;;;;4.43;2.95;;;9.80;74.10;;;;;;5076941;28;20035;-76
2021/09/30 03:31:48;;;;;;;6.50;2.47;;;9.80;74.60;;;;;;5076824;28;20034;-76
2021/09/30 03:34:15;;;;;;;4.05;2.22;;;9.80;74.20;;;;;;5036925;28;20032;-77
2021/09/30 03:36:41;;;;;;;4.47;2.40;;;9.80;73.90;;;;;;5036555;28;20466;-76
2021/09/30 03:39:14;;;;;;;4.57;2.50;;;9.70;74.60;;;;;;5036626;28;20029;-76
2021/09/30 03:41:43;;;;;;;4.82;2.00;;;9.70;74.70;;;;;;5036795;28;20026;-76
2021/09/30 03:44:10;;;;;;;5.03;2.13;;;9.60;74.90;;;;;;5036685;28;20025;-76
2021/09/30 03:46:35;;;;;;;5.57;2.08;;;9.70;74.60;;;;;;5036521;28;20424;-76
2021/09/30 03:49:08;;;;;;;8.32;2.38;;;9.70;74.20;;;;;;5035563;28;20040;-76
2021/09/30 03:51:59;;;;;;;4.57;2.50;;;9.70;74.70;;;;;;5036422;28;20021;-76
2021/09/30 03:59:24;;;;;;;4.47;2.58;;;9.50;75.20;;;;;;5046278;28;20025;-75
2021/09/30 04:02:01;;;;;;;5.18;2.72;;;9.60;74.90;;;;;;5055143;28;20029;-76
2021/09/30 04:04:34;;;;;;;6.80;2.60;;;9.60;74.60;;;;;;5056131;28;20029;-76
2021/09/30 04:07:05;;;;;;;5.03;2.47;;;9.60;75.20;;;;;;5041909;28;20025;-76
2021/09/30 04:09:32;;;;;;;8.90;2.63;;;9.60;74.80;;;;;;5051503;28;20033;-76
2021/09/30 04:12:04;;;;;;;6.07;3.08;;;9.50;75.10;;;;;;5037468;28;20021;-76
2021/09/30 04:14:30;;;;;;;4.53;2.05;;;9.30;75.50;;;;;;5054620;28;20029;-76
2021/09/30 04:16:58;;;;;;;3.15;2.47;;;9.30;75.50;;;;;;5056472;28;20084;-78
2021/09/30 04:19:25;;;;;;;3.40;2.58;;;9.30;75.70;;;;;;5035879;28;20040;-76
2021/09/30 04:21:52;;;;;;;7.97;2.42;;;9.40;75.30;;;;;;5036157;28;20017;-77
2021/09/30 04:24:20;;;;;;;5.07;2.75;;;9.40;75.40;;;;;;5049987;28;20032;-76
2021/09/30 04:26:46;;;;;;;3.97;2.63;;;9.40;75.70;;;;;;5063792;28;20101;-77
2021/09/30 04:29:12;;;;;;;4.47;2.45;;;9.30;75.60;;;;;;5035912;28;20083;-77
2021/09/30 04:31:39;;;;;;;3.42;2.50;;;9.30;75.70;;;;;;5035886;28;20026;-77
2021/09/30 04:34:05;;;;;;;4.57;3.00;;;9.30;75.70;;;;;;5045224;28;20025;-76
2021/09/30 04:36:31;;;;;;;3.65;2.38;;;9.30;75.90;;;;;;5055508;28;20411;-76
2021/09/30 04:38:56;;;;;;;4.88;2.58;;;9.30;75.10;;;;;;5055512;28;20028;-77
2021/09/30 04:41:22;;;;;;;6.50;2.78;;;9.30;74.80;;;;;;5053302;28;20572;-77
2021/09/30 04:43:48;;;;;;;4.65;3.13;;;9.30;74.50;;;;;;5035706;28;20407;-77
2021/09/30 04:46:16;;;;;;;4.80;2.92;;;9.30;74.70;;;;;;5043258;28;20021;-76
2021/09/30 04:48:42;;;;;;;4.13;2.88;;;9.30;75.10;;;;;;5044975;28;20466;-80
2021/09/30 04:51:10;;;;;;;6.97;3.20;;;9.20;75.10;;;;;;5052525;28;20021;-77
2021/09/30 04:53:37;;;;;;;4.85;2.83;;;9.20;75.20;;;;;;5055398;28;20040;-78
2021/09/30 04:56:03;;;;;;;5.30;2.67;;;9.20;75.60;;;;;;5039346;28;20037;-79
2021/09/30 04:58:29;;;;;;;3.80;2.55;;;9.20;74.90;;;;;;5050691;28;20124;-81
2021/09/30 05:00:55;;;;;;;5.80;2.90;;;9.30;74.50;;;;;;5034031;28;20025;-80
2021/09/30 05:03:21;;;;;;;5.07;3.10;;;9.20;74.60;;;;;;5034238;28;20032;-78
2021/09/30 05:05:47;;;;;;;3.60;2.35;;;9.20;75.00;;;;;;5040258;28;20013;-80
2021/09/30 05:08:13;;;;;;;3.83;2.55;;;9.20;74.90;;;;;;5055128;28;20029;-82
2021/09/30 05:10:40;;;;;;;6.88;2.88;;;9.20;74.70;;;;;;5055312;28;20025;-77
2021/09/30 05:13:35;;;;;;;4.13;2.80;;;9.20;75.00;;;;;;5038251;28;20037;-79
2021/09/30 05:15:55;;;;;;;2.80;2.50;;;9.10;75.40;;;;;;5034584;28;20061;-83
2021/09/30 05:18:21;;;;;;;3.78;2.45;;;9.10;75.20;;;;;;5034322;28;20520;-80
2021/09/30 05:20:46;;;;;;;8.55;2.85;;;9.10;75.40;;;;;;5043853;28;20017;-76
2021/09/30 05:23:12;;;;;;;6.35;2.70;;;9.10;75.50;;;;;;5041321;28;20025;-79
2021/09/30 05:25:38;;;;;;;3.83;2.70;;;8.80;76.20;;;;;;5041519;28;20024;-77
2021/09/30 05:28:04;;;;;;;3.95;2.40;;;8.70;77.30;;;;;;5048805;28;20453;-76
2021/09/30 05:30:38;;;;;;;4.85;2.28;;;8.50;77.90;;;;;;5055119;28;20111;-87
2021/09/30 05:33:04;;;;;;;6.25;2.72;;;8.60;78.00;;;;;;5046738;28;21945;-88
2021/09/30 05:35:30;;;;;;;4.28;2.75;;;8.60;78.00;;;;;;5029092;28;20049;-87
2021/09/30 05:37:56;;;;;;;8.00;2.80;;;8.70;77.70;;;;;;5037348;28;20391;-87
2021/09/30 05:40:23;;;;;;;2.63;2.20;;;8.60;77.70;;;;;;5054397;28;20017;-87
2021/09/30 05:42:49;;;;;;;8.00;2.70;;;8.60;77.70;;;;;;5061286;28;20029;-87
2021/09/30 05:45:16;;;;;;;4.65;2.28;;;8.60;77.50;;;;;;5056415;28;20025;-87
2021/09/30 05:47:45;;;;;;;6.75;3.05;;;8.50;78.00;;;;;;5047234;28;20907;-83
2021/09/30 05:50:12;;;;;;;3.83;2.92;;;8.50;78.20;;;;;;5059161;28;20027;-86
2021/09/30 05:52:38;;;;;;;6.47;2.75;;;8.60;77.70;;;;;;5067813;28;20025;-87
2021/09/30 05:55:05;;;;;;;10.88;3.47;;;8.70;77.10;;;;;;5055379;28;20018;-87
2021/09/30 05:57:32;;;;;;;5.70;2.65;;;8.80;76.40;;;;;;5039030;28;20056;-86
2021/09/30 06:00:09;;;;;;;8.77;3.00;;;8.80;76.20;;;;;;5041336;28;20077;-88
2021/09/30 06:16:25;;;;;;;12.25;3.08;;;8.90;75.60;;;;;;5059971;28;20029;-86
2021/09/30 06:18:50;;;;;;;9.40;2.80;;;9.00;75.30;;;;;;5058662;28;20110;-86
2021/09/30 06:21:16;;;;;;;8.32;2.88;;;8.90;75.50;;;;;;5043821;28;20034;-86
2021/09/30 06:23:42;;;;;;;6.55;2.83;;;8.90;75.40;;;;;;5044728;28;20028;-86
2021/09/30 06:26:08;;;;;;;5.88;2.97;;;8.70;76.30;;;;;;5063166;28;20446;-86
2021/09/30 06:28:35;;;;;;;4.93;2.38;;;8.70;76.90;;;;;;5038586;28;20081;-86
2021/09/30 06:31:01;;;;;;;5.75;2.65;;;8.60;77.20;;;;;;5038345;28;20028;-86
2021/09/30 06:33:26;;;;;;;5.07;2.70;;;8.50;77.80;;;;;;5049260;28;20037;-86
2021/09/30 06:35:52;;;;;;;5.47;2.90;;;8.40;78.10;;;;;;5058161;28;20053;-86
2021/09/30 06:38:18;;;;;;;9.38;3.08;;;8.30;78.30;;;;;;5057224;28;20129;-86
2021/09/30 06:40:45;;;;;;;7.43;2.83;;;8.30;78.70;;;;;;5052364;28;20025;-87
2021/09/30 06:43:11;;;;;;;5.45;2.75;;;8.50;78.80;;;;;;5042898;28;20017;-86
2021/09/30 06:45:37;;;;;;;7.35;2.70;;;8.60;78.30;;;;;;5056838;28;20490;-86
2021/09/30 06:48:03;;;;;;;4.35;2.58;;;8.80;77.80;;;;;;5052449;28;20033;-87
2021/09/30 06:50:29;;;;;;;7.65;2.67;;;9.00;76.90;;;;;;5035239;28;20116;-86
2021/09/30 06:52:55;;;;;;;7.10;3.22;;;9.20;76.50;;;;;;5037962;28;20104;-86
2021/09/30 06:55:21;;;;;;;2.97;2.70;;;9.80;75.30;;;;;;5051707;28;20028;-87
2021/09/30 06:57:47;;;;;;;3.65;2.58;;;11.40;71.30;;;;;;5058139;28;20035;-86
2021/09/30 07:00:13;;;;;;;4.43;2.20;;;12.90;66.60;;;;;;5057769;28;20036;-87
2021/09/30 07:02:42;;;;;;;4.38;2.10;;;14.00;62.80;;;;;;5048829;28;20202;-83
2021/09/30 07:05:09;;;;;;;4.65;2.50;;;14.00;61.60;;;;;;5036744;28;20030;-78
2021/09/30 07:07:35;;;;;;;7.00;2.55;;;13.70;62.30;;;;;;5042343;28;20063;-78
2021/09/30 07:10:05;;;;;;;4.50;2.65;;;13.80;62.30;;;;;;5046097;28;20036;-78
2021/09/30 07:12:30;;;;;;;6.18;2.60;;;13.90;62.10;;;;;;5047180;28;20025;-78
2021/09/30 07:14:56;;;;;;;8.02;2.70;;;14.40;60.30;;;;;;5044089;28;20038;-79
2021/09/30 07:17:23;;;;;;;6.53;2.53;;;14.60;60.40;;;;;;5042475;28;20033;-79
2021/09/30 07:19:49;;;;;;;4.70;2.38;;;14.80;59.10;;;;;;5039137;28;20033;-79
2021/09/30 07:22:14;;;;;;;4.55;2.40;;;14.70;59.50;;;;;;5050847;28;20028;-78
2021/09/30 07:24:40;;;;;;;6.47;2.40;;;13.80;62.30;;;;;;5046629;28;20495;-78
2021/09/30 07:27:10;;;;;;;9.93;2.83;;;13.10;63.90;;;;;;5036707;28;20032;-78
2021/09/30 07:29:36;;;;;;;4.87;1.57;;;12.40;67.00;;;;;;5036867;28;20087;-78
2021/09/30 07:32:02;;;;;;;4.00;2.47;;;12.00;67.90;;;;;;5036628;28;20029;-78
2021/09/30 07:34:29;;;;;;;5.97;2.90;;;11.70;69.10;;;;;;5036411;28;20387;-78
2021/09/30 07:36:55;;;;;;;3.65;2.78;;;11.50;70.60;;;;;;5036394;28;20037;-78
2021/09/30 07:39:21;;;;;;;5.28;2.15;;;11.60;70.70;;;;;;5037714;28;20036;-78
2021/09/30 07:41:48;;;;;;;4.55;2.53;;;11.50;71.70;;;;;;5046858;28;20029;-78
2021/09/30 07:44:14;;;;;;;5.32;2.45;;;11.50;71.40;;;;;;5043114;28;20017;-79
2021/09/30 07:46:41;;;;;;;7.78;2.95;;;11.50;71.50;;;;;;5045206;28;20077;-78
2021/09/30 07:49:07;;;;;;;10.27;2.72;;;11.60;71.40;;;;;;5041130;28;20108;-79
2021/09/30 07:51:35;;;;;;;7.97;2.28;;;11.60;71.60;;;;;;5036600;28;20601;-79
2021/09/30 07:54:02;;;;;;;7.85;2.42;;;11.70;71.50;;;;;;5046251;28;20514;-79
2021/09/30 07:56:28;;;;;;;7.60;2.67;;;11.60;70.90;;;;;;5052838;28;20043;-79
2021/09/30 07:58:55;;;;;;;4.10;2.22;;;11.70;71.60;;;;;;5036351;28;20112;-79
2021/09/30 08:01:22;;;;;;;4.20;2.42;;;11.80;72.00;;;;;;5036138;28;20060;-79
2021/09/30 08:03:49;;;;;;;8.85;2.80;;;11.80;71.40;;;;;;5034948;28;20033;-79
2021/09/30 08:06:15;;;;;;;4.07;2.08;;;12.00;71.40;;;;;;5036096;28;20029;-79
2021/09/30 08:08:41;;;;;;;5.22;2.42;;;12.10;71.10;;;;;;5035953;28;20075;-79
2021/09/30 08:11:06;;;;;;;5.97;2.33;;;12.20;71.10;;;;;;5036632;28;20036;-78
2021/09/30 08:13:33;;;;;;;8.13;2.88;;;12.20;71.00;;;;;;5046003;28;20095;-79
2021/09/30 08:15:59;;;;;;;4.97;3.05;;;12.30;71.20;;;;;;5035867;28;20021;-79
2021/09/30 08:18:25;;;;;;;7.35;2.65;;;12.30;70.80;;;;;;5035788;28;20087;-79
2021/09/30 08:20:52;;;;;;;6.75;2.85;;;12.30;71.20;;;;;;5035916;28;20029;-79
2021/09/30 08:23:18;;;;;;;5.90;2.55;;;12.40;70.40;;;;;;5045108;28;20040;-79
2021/09/30 08:25:44;;;;;;;5.30;2.75;;;12.50;71.10;;;;;;5056467;28;20483;-79
2021/09/30 08:28:11;;;;;;;7.70;2.58;;;12.60;71.00;;;;;;5042677;28;20026;-79
2021/09/30 08:30:40;;;;;;;10.35;2.67;;;12.80;70.70;;;;;;5034448;28;20563;-80
2021/09/30 08:33:09;;;;;;;2.90;2.10;;;12.80;70.90;;;;;;5040388;28;20511;-80
2021/09/30 08:35:36;;;;;;;7.68;3.00;;;13.00;70.80;;;;;;5035442;28;20053;-79
2021/09/30 08:38:02;;;;;;;7.88;2.60;;;13.10;70.20;;;;;;5035439;28;20041;-79
2021/09/30 08:40:29;;;;;;;5.60;2.42;;;13.30;70.10;;;;;;5035751;28;20048;-80
2021/09/30 08:42:56;;;;;;;8.10;2.13;;;13.40;69.60;;;;;;5035548;28;20440;-80
2021/09/30 08:45:23;;;;;;;3.08;1.52;;;13.50;69.60;;;;;;5037948;28;20403;-80
2021/09/30 08:48:06;;;;;;;7.15;2.28;;;13.40;68.40;;;;;;5049060;28;20025;-80
2021/09/30 08:50:40;;;;;;;5.45;2.15;;;13.50;69.50;;;;;;5050030;28;20037;-81
2021/09/30 08:53:08;;;;;;;6.85;2.28;;;13.50;70.50;;;;;;5035398;28;20037;-81
2021/09/30 08:55:33;;;;;;;4.40;2.15;;;13.60;70.30;;;;;;5034101;28;20036;-86
2021/09/30 08:58:02;;;;;;;6.47;2.58;;;13.70;70.00;;;;;;5035265;28;20029;-83
2021/09/30 09:00:30;;;;;;;7.22;2.08;;;13.80;70.00;;;;;;5035243;28;20087;-83
2021/09/30 09:02:56;;;;;;;7.53;2.60;;;13.90;69.40;;;;;;5034079;28;20114;-83
2021/09/30 09:05:23;;;;;;;6.45;2.28;;;14.00;70.20;;;;;;5049125;28;20508;-83
2021/09/30 09:07:54;;;;;;;4.10;1.95;;;14.10;70.00;;;;;;5035337;28;20029;-83
2021/09/30 09:10:22;;;;;;;5.13;1.45;;;14.20;69.00;;;;;;5041788;28;20376;-83
2021/09/30 09:13:04;;;;;;;8.55;2.92;;;14.20;67.30;;;;;;5054684;28;20112;-82
2021/09/30 09:16:00;;;;;;;4.78;1.70;;;14.30;68.00;;;;;;5047830;28;20068;-83
2021/09/30 09:18:27;;;;;;;4.32;1.70;;;14.30;67.00;;;;;;5034906;28;20058;-83
2021/09/30 09:21:09;;;;;;;6.57;1.73;;;14.40;66.50;;;;;;5050515;28;20035;-83
2021/09/30 09:23:51;;;;;;;5.28;1.45;;;14.50;66.40;;;;;;5054975;28;20025;-83
2021/09/30 09:26:28;;;;;;;3.05;1.05;;;14.50;66.50;;;;;;5038951;28;20033;-83
2021/09/30 09:29:07;;;;;;;2.95;1.50;;;14.60;65.70;;;;;;5037681;28;20503;-84
2021/09/30 09:31:55;;;;;;;6.03;1.45;;;14.70;65.20;;;;;;5035139;28;20041;-83
2021/09/30 09:34:31;;;;;;;4.70;1.27;;;14.90;65.80;;;;;;5033479;28;20026;-84
2021/09/30 09:37:35;;;;;;;5.30;1.30;;;15.00;64.20;;;;;;5034650;28;20423;-82
2021/09/30 09:40:14;;;;;;;3.83;1.00;;;15.10;64.20;;;;;;5040150;28;20047;-84
2021/09/30 09:42:39;;;;;;;5.55;1.35;;;15.20;63.60;;;;;;5033444;28;20492;-84
2021/09/30 09:45:10;;;;;;;3.33;0.85;;;15.20;62.80;;;;;;5034585;28;20042;-83
2021/09/30 09:47:38;;;;;;;6.20;1.50;;;15.30;63.60;;;;;;5035179;28;20091;-83
2021/09/30 09:50:19;;;;;;;1.35;0.68;;;15.40;62.80;;;;;;5042009;28;20033;-84
2021/09/30 09:52:51;;;;;;;5.35;1.50;;;15.40;61.20;;;;;;5054758;28;20025;-82
2021/09/30 09:55:33;;;;;;;3.03;1.00;;;15.60;61.60;;;;;;5054660;28;20029;-83
2021/09/30 09:58:10;;;;;;;4.00;1.00;;;15.70;59.30;;;;;;5039606;28;20025;-84
2021/09/30 10:01:00;;;;;;;4.45;1.00;;;15.80;59.90;;;;;;5038138;28;20051;-83
2021/09/30 10:03:31;;;;;;;3.10;0.82;;;15.90;61.00;;;;;;5052232;28;20053;-81
2021/09/30 10:05:59;;;;;;;6.03;1.10;;;16.10;60.90;;;;;;5036936;28;20042;-85
2021/09/30 10:08:25;;;;;;;7.38;1.42;;;16.10;57.90;;;;;;5034895;28;20029;-84
2021/09/30 10:10:55;;;;;;;7.88;1.02;;;16.20;58.20;;;;;;5034629;28;20583;-83
2021/09/30 10:13:24;;;;;;;3.92;0.70;;;16.10;56.60;;;;;;5042900;28;20029;-83
2021/09/30 10:15:54;;;;;;;2.33;1.00;;;16.20;58.50;;;;;;5039445;28;20725;-83
2021/09/30 10:18:22;;;;;;;4.03;1.02;;;16.30;56.80;;;;;;5034335;28;20040;-84
2021/09/30 10:20:49;;;;;;;2.67;0.70;;;16.30;56.30;;;;;;5033527;28;20443;-83
2021/09/30 10:23:24;;;;;;;1.67;0.70;;;16.30;56.30;;;;;;5034724;28;20040;-84
2021/09/30 10:25:53;;;;;;;5.63;1.00;;;16.50;58.90;;;;;;5037757;28;20039;-84
2021/09/30 10:28:19;;;;;;;5.50;1.98;;;16.60;58.30;;;;;;5038026;28;20029;-84
2021/09/30 10:30:46;;;;;;;2.35;0.90;;;16.50;56.00;;;;;;5038010;28;20116;-84
2021/09/30 10:33:15;;;;;;;3.65;1.27;;;16.70;56.80;;;;;;5038020;28;20032;-82
2021/09/30 10:35:51;;;;;;;2.80;0.98;;;16.70;56.30;;;;;;5041561;28;20052;-83
2021/09/30 10:38:19;;;;;;;3.53;1.40;;;16.80;57.40;;;;;;5057938;28;20032;-84
2021/09/30 10:41:06;;;;;;;1.90;0.85;;;16.90;57.20;;;;;;5040727;28;20052;-85
2021/09/30 10:43:44;;;;;;;4.00;0.98;;;16.90;54.40;;;;;;5037524;28;20021;-84
2021/09/30 10:46:41;;;;;;;6.03;1.20;;;17.00;55.50;;;;;;5037959;28;20029;-84
2021/09/30 10:49:43;;;;;;;3.90;0.90;;;17.00;54.40;;;;;;5041452;28;20042;-84
2021/09/30 10:52:27;;;;;;;2.20;1.00;;;17.20;55.10;;;;;;5036898;28;20525;-84
2021/09/30 10:55:14;;;;;;;1.70;0.70;;;17.20;55.10;;;;;;5037405;28;20040;-84
2021/09/30 10:57:42;;;;;;;3.42;0.73;;;17.20;54.50;;;;;;5040159;28;20045;-85
2021/09/30 11:00:17;;;;;;;2.95;0.73;;;17.30;54.50;;;;;;5052028;28;20040;-82
2021/09/30 11:03:01;;;;;;;4.72;1.13;;;17.30;55.20;;;;;;5037617;28;20491;-83
2021/09/30 11:05:28;;;;;;;1.52;0.70;;;17.30;54.20;;;;;;5037306;28;20083;-85
2021/09/30 11:08:25;;;;;;;2.67;0.60;;;17.40;55.20;;;;;;5037415;28;20029;-84
2021/09/30 11:11:25;;;;;;;3.95;1.25;;;17.60;53.60;;;;;;5037191;28;20105;-85
2021/09/30 11:13:57;;;;;;;1.67;0.60;;;17.70;52.60;;;;;;5052732;28;20036;-84
2021/09/30 11:16:45;;;;;;;5.18;0.90;;;17.60;52.50;;;;;;5037435;28;20060;-84
2021/09/30 11:19:41;;;;;;;2.47;0.88;;;17.50;52.70;;;;;;5037006;28;20025;-82
2021/09/30 11:22:10;;;;;;;6.85;1.05;;;17.50;52.90;;;;;;5037382;28;20032;-85
2021/09/30 11:24:50;;;;;;;3.28;1.00;;;17.70;52.60;;;;;;5057577;28;20031;-85
2021/09/30 11:27:17;;;;;;;4.43;0.90;;;17.90;53.80;;;;;;5077224;28;20471;-84
2021/09/30 11:29:44;;;;;;;3.10;0.75;;;18.10;52.40;;;;;;5077059;28;20063;-84
2021/09/30 11:32:10;;;;;;;3.05;0.60;;;18.30;51.10;;;;;;5067730;28;20025;-85
2021/09/30 11:34:46;;;;;;;4.70;1.05;;;18.40;51.10;;;;;;5051873;28;20581;-84
2021/09/30 11:37:19;;;;;;;6.68;0.90;;;18.40;50.20;;;;;;5036465;28;20483;-85
2021/09/30 11:39:49;;;;;;;3.08;1.00;;;18.60;50.40;;;;;;5056594;28;20029;-86
2021/09/30 11:42:19;;;;;;;4.63;0.88;;;18.80;51.60;;;;;;5056736;28;20049;-84
2021/09/30 11:45:00;;;;;;;1.80;0.50;;;18.80;50.50;;;;;;5036313;28;20112;-85
2021/09/30 11:47:29;;;;;;;2.17;0.75;;;18.60;50.10;;;;;;5036767;28;20559;-85
2021/09/30 11:49:55;;;;;;;2.42;0.70;;;18.60;50.80;;;;;;5036944;28;20145;-85
2021/09/30 11:52:21;;;;;;;5.03;0.93;;;18.60;51.80;;;;;;5036287;28;20037;-83
2021/09/30 11:54:47;;;;;;;4.10;0.70;;;18.40;51.40;;;;;;5052283;28;20034;-85
2021/09/30 11:57:23;;;;;;;4.10;0.90;;;18.70;51.20;;;;;;5053102;28;20025;-83
2021/09/30 11:59:49;;;;;;;5.53;1.17;;;19.00;51.70;;;;;;5056646;28;20026;-83
2021/09/30 12:02:15;;;;;;;6.07;0.95;;;19.20;50.60;;;;;;5054210;28;20049;-86
2021/09/30 12:04:47;;;;;;;2.55;0.65;;;19.40;50.30;;;;;;5034494;28;20024;-84
2021/09/30 12:07:23;;;;;;;2.85;0.80;;;19.30;48.40;;;;;;5036504;28;20036;-84
2021/09/30 12:09:54;;;;;;;2.13;0.80;;;19.30;48.70;;;;;;5036168;28;20079;-85
2021/09/30 12:12:34;;;;;;;3.38;0.80;;;19.20;48.80;;;;;;5055715;28;20032;-85
2021/09/30 12:15:02;;;;;;;3.70;0.85;;;19.30;48.70;;;;;;5055985;28;20054;-84
2021/09/30 12:17:33;;;;;;;5.32;1.15;;;19.40;50.90;;;;;;5050472;28;20048;-85
2021/09/30 12:19:59;;;;;;;2.35;0.60;;;19.40;50.30;;;;;;5035998;28;20450;-85
2021/09/30 12:22:32;;;;;;;3.10;0.77;;;19.40;48.80;;;;;;5036112;28;20059;-83
2021/09/30 12:25:11;;;;;;;4.70;0.90;;;19.30;50.30;;;;;;5043821;28;20033;-84
2021/09/30 12:27:39;;;;;;;2.55;0.82;;;19.30;50.10;;;;;;5035994;28;20037;-85
2021/09/30 12:30:20;;;;;;;3.42;0.70;;;19.50;51.30;;;;;;5037156;28;20028;-85
2021/09/30 12:32:49;;;;;;;3.78;1.10;;;19.50;49.30;;;;;;5054602;28;20033;-84
2021/09/30 12:35:26;;;;;;;5.63;0.88;;;19.60;49.10;;;;;;5053882;28;20534;-85
2021/09/30 12:37:57;;;;;;;1.83;0.90;;;19.60;47.60;;;;;;5046420;28;20485;-84
2021/09/30 12:40:26;;;;;;;5.10;0.75;;;19.30;48.30;;;;;;5035806;28;20014;-84
2021/09/30 12:43:11;;;;;;;1.45;0.52;;;19.40;49.60;;;;;;5035650;28;20100;-83
2021/09/30 12:45:38;;;;;;;3.53;0.70;;;19.30;48.80;;;;;;5047698;28;20037;-84
2021/09/30 12:48:06;;;;;;;3.45;1.10;;;19.20;47.50;;;;;;5035838;28;20017;-84
2021/09/30 12:50:41;;;;;;;2.20;0.57;;;19.20;49.50;;;;;;5054122;28;20032;-84
2021/09/30 12:53:07;;;;;;;4.97;0.60;;;19.20;49.40;;;;;;5055252;28;20035;-85
2021/09/30 12:55:33;;;;;;;4.97;0.80;;;19.30;49.40;;;;;;5055366;28;20021;-83
2021/09/30 12:58:00;;;;;;;3.95;0.93;;;19.40;48.60;;;;;;5055440;28;20028;-83
2021/09/30 13:00:32;;;;;;;0.88;0.40;;;19.50;48.00;;;;;;5035772;28;20103;-83
2021/09/30 13:03:14;;;;;;;6.93;0.85;;;19.50;48.30;;;;;;5039453;28;20039;-84
2021/09/30 13:05:49;;;;;;;5.97;1.20;;;19.50;49.00;;;;;;5055213;28;20032;-84
2021/09/30 13:08:36;;;;;;;2.08;0.70;;;19.60;48.80;;;;;;5034543;28;20030;-84
2021/09/30 13:11:29;;;;;;;1.08;0.40;;;19.50;47.90;;;;;;5036086;28;20022;-83
2021/09/30 13:14:15;;;;;;;1.10;0.63;;;19.50;47.50;;;;;;5054851;28;20025;-82
2021/09/30 13:16:42;;;;;;;2.78;0.65;;;19.40;48.20;;;;;;5049325;28;20025;-83
2021/09/30 13:19:08;;;;;;;4.25;0.90;;;19.60;48.80;;;;;;5034998;28;20537;-83
2021/09/30 13:21:53;;;;;;;5.50;1.10;;;19.50;47.70;;;;;;5033784;28;20610;-83
2021/09/30 13:24:19;;;;;;;4.28;0.80;;;19.50;48.60;;;;;;5050519;28;20027;-83
2021/09/30 13:26:44;;;;;;;3.63;1.00;;;19.50;49.20;;;;;;5075018;28;20052;-83
2021/09/30 13:29:10;;;;;;;2.25;0.50;;;19.60;48.90;;;;;;5071741;28;20024;-83
2021/09/30 13:31:36;;;;;;;3.38;0.70;;;19.60;48.80;;;;;;5054950;28;20037;-82
2021/09/30 13:34:02;;;;;;;1.80;1.10;;;19.60;49.20;;;;;;5054980;28;20437;-83
2021/09/30 13:36:28;;;;;;;2.45;0.73;;;19.60;49.20;;;;;;5053114;28;20045;-83
2021/09/30 13:38:53;;;;;;;2.97;0.80;;;19.70;49.30;;;;;;5052982;28;20051;-82
2021/09/30 13:41:19;;;;;;;1.98;0.70;;;19.60;48.90;;;;;;5033749;28;20041;-82
2021/09/30 13:43:45;;;;;;;2.75;0.77;;;19.50;49.60;;;;;;5034783;28;20025;-83
2021/09/30 13:46:10;;;;;;;3.25;0.70;;;19.40;50.10;;;;;;5034825;28;20018;-83
2021/09/30 13:48:36;;;;;;;5.40;0.80;;;19.30;49.70;;;;;;5034690;28;20495;-82
2021/09/30 13:51:02;;;;;;;1.65;0.50;;;19.40;50.00;;;;;;5034798;28;20104;-83
2021/09/30 13:53:27;;;;;;;4.00;1.15;;;19.60;48.20;;;;;;5034791;28;20064;-82
2021/09/30 13:55:53;;;;;;;4.53;0.63;;;19.80;49.10;;;;;;5033282;28;20105;-82
2021/09/30 13:58:19;;;;;;;1.95;0.80;;;19.80;48.50;;;;;;5034232;28;20109;-82
2021/09/30 14:00:44;;;;;;;4.38;0.82;;;20.00;48.80;;;;;;5037701;28;20026;-84
2021/09/30 14:03:10;;;;;;;4.30;0.70;;;20.00;48.90;;;;;;5038349;28;20030;-83
2021/09/30 14:05:35;;;;;;;5.90;1.38;;;19.90;48.90;;;;;;5038341;28;20024;-83
2021/09/30 14:08:01;;;;;;;1.35;0.50;;;20.00;48.80;;;;;;5038417;28;20480;-82
2021/09/30 14:10:27;;;;;;;2.55;0.55;;;19.80;48.70;;;;;;5038599;28;20029;-83
2021/09/30 14:12:53;;;;;;;4.35;0.85;;;19.80;48.90;;;;;;5038684;28;20025;-83
2021/09/30 14:15:18;;;;;;;2.78;0.90;;;19.70;48.90;;;;;;5038122;28;20021;-83
2021/09/30 14:17:44;;;;;;;5.57;1.15;;;19.60;49.30;;;;;;5038446;28;20038;-82
2021/09/30 14:20:11;;;;;;;2.50;0.82;;;19.70;48.90;;;;;;5038083;28;20546;-81
2021/09/30 14:22:38;;;;;;;3.95;0.70;;;19.70;48.20;;;;;;5036817;28;20098;-82
2021/09/30 14:25:05;;;;;;;3.03;0.60;;;19.50;49.00;;;;;;5061750;28;20024;-82
2021/09/30 14:27:31;;;;;;;4.00;0.85;;;19.30;48.70;;;;;;5038200;28;20022;-82
2021/09/30 14:29:57;;;;;;;4.97;0.82;;;19.40;50.10;;;;;;5038069;28;20081;-83
2021/09/30 14:32:23;;;;;;;3.15;0.95;;;19.60;49.50;;;;;;5040623;28;20064;-82
2021/09/30 14:34:49;;;;;;;3.67;0.80;;;19.70;49.20;;;;;;5057764;28;20409;-82
2021/09/30 14:37:14;;;;;;;2.35;0.63;;;19.70;47.90;;;;;;5056388;28;20037;-90
2021/09/30 14:39:40;;;;;;;2.05;0.57;;;19.80;47.80;;;;;;5041962;28;20051;-91
2021/09/30 14:42:10;;;;;;;6.63;1.13;;;19.80;47.70;;;;;;5047086;28;20052;-86
2021/09/30 14:44:36;;;;;;;2.13;0.65;;;19.70;47.40;;;;;;5037153;28;20466;-89
2021/09/30 14:47:03;;;;;;;6.35;1.20;;;19.70;48.30;;;;;;5040907;28;20083;-89
2021/09/30 14:49:31;;;;;;;3.50;0.70;;;19.60;47.90;;;;;;5048559;28;20048;-90
2021/09/30 14:51:56;;;;;;;3.25;1.00;;;19.60;48.40;;;;;;5043544;28;20093;-89
2021/09/30 14:54:22;;;;;;;1.90;0.60;;;19.60;48.50;;;;;;5045878;28;20507;-90
2021/09/30 14:56:49;;;;;;;2.10;0.73;;;19.70;48.80;;;;;;5047490;28;20029;-90
2021/09/30 14:59:14;;;;;;;3.83;0.65;;;19.80;49.10;;;;;;5040903;28;20052;-90
2021/09/30 15:01:40;;;;;;;3.08;0.60;;;19.70;48.40;;;;;;5046010;28;20036;-89
2021/09/30 15:04:06;;;;;;;3.90;0.60;;;19.40;49.10;;;;;;5049901;28;20135;-90
2021/09/30 15:06:40;;;;;;;2.67;1.08;;;19.20;50.20;;;;;;5054073;28;20029;-91
2021/09/30 15:09:06;;;;;;;1.38;0.40;;;19.20;50.40;;;;;;5065973;28;20029;-90
2021/09/30 15:11:32;;;;;;;3.45;0.70;;;19.00;50.50;;;;;;5048991;28;20069;-85
2021/09/30 15:13:58;;;;;;;3.50;0.80;;;19.00;51.60;;;;;;5051400;28;20160;-88
2021/09/30 15:16:26;;;;;;;5.60;0.80;;;19.20;51.10;;;;;;5055742;28;20075;-88
2021/09/30 15:18:54;;;;;;;4.25;0.73;;;19.40;51.20;;;;;;5049250;28;20473;-87
2021/09/30 15:21:21;;;;;;;2.85;0.70;;;19.60;49.90;;;;;;5056266;28;20057;-88
2021/09/30 15:23:48;;;;;;;4.72;0.98;;;19.50;50.10;;;;;;5052001;28;20032;-88
2021/09/30 15:26:17;;;;;;;2.75;0.60;;;19.30;50.80;;;;;;5055719;28;20025;-90
2021/09/30 15:28:44;;;;;;;4.10;1.10;;;19.30;50.70;;;;;;5053916;28;20041;-87
2021/09/30 15:31:10;;;;;;;3.13;0.77;;;19.30;50.50;;;;;;5047411;28;20057;-89
2021/09/30 15:33:35;;;;;;;3.45;0.52;;;19.30;50.40;;;;;;5053719;28;20025;-90
2021/09/30 15:36:01;;;;;;;3.15;0.57;;;19.40;50.70;;;;;;5039601;28;20045;-88
2021/09/30 15:38:27;;;;;;;6.22;1.80;;;19.40;50.60;;;;;;5054968;28;20036;-86
2021/09/30 15:40:54;;;;;;;9.15;3.58;;;19.30;51.10;;;;;;5052030;28;20058;-88
2021/09/30 15:43:20;;;;;;;10.98;5.60;;;19.30;50.70;;;;;;5048991;28;20029;-86
2021/09/30 15:45:45;;;;;;;6.50;0.82;;;19.20;51.40;;;;;;5042996;28;20025;-85
2021/09/30 15:48:12;;;;;;;2.35;0.63;;;18.80;52.10;;;;;;5047821;28;20032;-86
2021/09/30 15:50:38;;;;;;;3.38;1.05;;;18.70;52.50;;;;;;5036381;28;20092;-88
2021/09/30 15:53:03;;;;;;;4.03;0.63;;;18.80;52.00;;;;;;5043049;28;20033;-86
2021/09/30 15:55:29;;;;;;;4.25;0.80;;;19.00;52.40;;;;;;5049778;28;20465;-86
2021/09/30 15:57:55;;;;;;;3.90;1.15;;;19.10;52.30;;;;;;5046989;28;20009;-86